createdAt,value
2023-04-11T00:04:01.103Z,1000.3
2023-04-11T00:08:57.406Z,1000.3
2023-04-11T00:13:56.550Z,1000.1
2023-04-11T00:18:56.585Z,1000.4
2023-04-11T00:23:56.983Z,1000.5
2023-04-11T00:28:53.882Z,1000.7
2023-04-11T00:33:53.997Z,1000.4
2023-04-11T00:38:53.355Z,1000.5
2023-04-11T00:43:52.884Z,1000.8
2023-04-11T00:48:50.682Z,1000.8
2023-04-11T00:53:50.503Z,1001.1
2023-04-11T00:58:49.542Z,1001.4
2023-04-11T01:00:36.272Z,1001.3
2023-04-11T01:05:11.058Z,1001.5
2023-04-11T01:10:11.240Z,1001.1
2023-04-11T01:20:09.633Z,1001.2
2023-04-11T01:25:10.842Z,1001.1
2023-04-11T01:30:07.065Z,1001
2023-04-11T01:35:07.347Z,1001.1
2023-04-11T01:45:06.248Z,1000.9
2023-04-11T01:50:04.544Z,1001
2023-04-11T01:55:04.968Z,1001.1
2023-04-11T01:59:43.781Z,1000.8
2023-04-11T02:04:43.002Z,1001
2023-04-11T02:09:42.937Z,1001
2023-04-11T02:14:43.453Z,1001.2
2023-04-11T02:24:40.572Z,1000.9
2023-04-11T02:29:40.565Z,1000.9
2023-04-11T03:04:13.287Z,1001.4
2023-04-11T03:09:11.910Z,1001.5
2023-04-11T03:14:11.851Z,1001.6
2023-04-11T03:19:11.426Z,1001.7
2023-04-11T03:24:10.752Z,1001.8
2023-04-11T03:29:10.815Z,1001.8
2023-04-11T03:34:10.486Z,1001.8
2023-04-11T03:39:08.706Z,1001.8
2023-04-11T03:44:07.898Z,1001.8
2023-04-11T03:49:07.501Z,1001.8
2023-04-11T03:54:06.737Z,1001.7
2023-04-11T03:59:06.686Z,1001.8
2023-04-11T04:04:07.046Z,1001.7
2023-04-11T04:09:06.036Z,1001.7
2023-04-11T04:14:06.157Z,1001.8
2023-04-11T04:19:06.922Z,1001.9
2023-04-11T04:24:03.834Z,1001.9
2023-04-11T04:29:03.322Z,1001.8
2023-04-11T04:34:03.054Z,1001.7
2023-04-11T04:39:02.737Z,1001.8
2023-04-11T04:44:00.180Z,1002
2023-04-11T04:49:01.622Z,1002
2023-04-11T04:53:59.008Z,1002.6
2023-04-11T04:58:58.936Z,1002.6
2023-04-11T05:03:58.482Z,1002.6
2023-04-11T05:08:58.628Z,1002.8
2023-04-11T05:13:58.207Z,1002.9
2023-04-11T05:18:58.063Z,1003
2023-04-11T05:23:55.872Z,1003
2023-04-11T05:28:55.568Z,1003
2023-04-11T05:33:55.416Z,1003.1
2023-04-11T05:38:54.611Z,1003.1
2023-04-11T05:43:54.071Z,1003.2
2023-04-11T05:48:54.181Z,1003.3
2023-04-11T05:53:53.178Z,1003.4
2023-04-11T05:58:52.991Z,1003.4
2023-04-11T06:00:39.507Z,1003.5
2023-04-11T06:05:13.016Z,1003.5
2023-04-11T06:10:12.839Z,1003.7
2023-04-11T06:15:12.062Z,1003.7
2023-04-11T06:20:14.157Z,1003.7
2023-04-11T06:25:09.497Z,1003.7
2023-04-11T06:30:09.418Z,1003.8
2023-04-11T06:35:08.942Z,1003.9
2023-04-11T06:40:08.366Z,1003.9
2023-04-11T06:45:06.437Z,1003.8
2023-04-11T06:50:06.900Z,1004
2023-04-11T06:55:06.024Z,1003.9
2023-04-11T07:04:41.687Z,1004.2
2023-04-11T07:09:40.594Z,1004.3
2023-04-11T07:14:41.267Z,1004.4
2023-04-11T08:04:12.007Z,1004.2
2023-04-11T08:09:11.798Z,1004.3
2023-04-11T08:14:10.955Z,1004.4
2023-04-11T08:19:09.030Z,1004.5
2023-04-11T08:25:03.001Z,1004.6
2023-04-11T08:29:09.118Z,1004.6
2023-04-11T08:34:11.440Z,1004.6
2023-04-11T08:39:08.415Z,1004.5
2023-04-11T08:44:08.562Z,1004.4
2023-04-11T08:49:09.365Z,1004.4
2023-04-11T08:54:06.277Z,1004.5
2023-04-11T08:59:06.342Z,1004.4
2023-04-11T09:04:06.728Z,1004.3
2023-04-11T09:09:06.284Z,1004.2
2023-04-11T09:14:04.763Z,1004.1
2023-04-11T09:19:05.026Z,1004
2023-04-11T09:24:04.178Z,1004
2023-04-11T09:29:03.769Z,1004.1
2023-04-11T09:34:03.172Z,1004.1
2023-04-11T09:39:03.070Z,1004.1
2023-04-11T09:44:02.149Z,1004.1
2023-04-11T09:49:08.190Z,1004.2
2023-04-11T09:54:02.974Z,1004.1
2023-04-11T09:59:00.269Z,1004.2
2023-04-11T10:00:46.682Z,1004.2
2023-04-11T10:05:21.208Z,1004.4
2023-04-11T10:10:19.986Z,1004.5
2023-04-11T10:15:19.566Z,1004.5
2023-04-11T10:20:19.635Z,1004.5
2023-04-11T10:25:19.533Z,1004.3
2023-04-11T10:35:17.299Z,1004.3
2023-04-11T10:40:17.121Z,1004.3
2023-04-11T10:45:16.441Z,1004.3
2023-04-11T10:50:16.408Z,1004.2
2023-04-11T10:55:14.046Z,1004.1
2023-04-11T11:04:15.334Z,1004.1
2023-04-11T11:19:14.240Z,1004.1
2023-04-11T11:24:13.401Z,1003.9
2023-04-11T11:29:13.521Z,1003.7
2023-04-11T11:34:32.651Z,1004
2023-04-11T11:39:11.209Z,1004.2
2023-04-11T11:44:10.038Z,1004.4
2023-04-11T11:49:10.054Z,1004.4
2023-04-11T11:54:08.735Z,1004.4
2023-04-11T11:59:08.810Z,1004.3
2023-04-11T12:04:09.823Z,1004.4
2023-04-11T12:09:08.736Z,1004.8
2023-04-11T12:14:09.553Z,1004.8
2023-04-11T12:19:05.336Z,1004.8
2023-04-11T12:24:05.853Z,1004.6
2023-04-11T12:29:05.325Z,1004.5
2023-04-11T12:34:05.062Z,1004.4
2023-04-11T12:39:02.662Z,1004.4
2023-04-11T12:44:02.264Z,1004.6
2023-04-11T12:54:00.644Z,1004.7
2023-04-11T12:59:00.140Z,1004.7
2023-04-11T13:04:00.649Z,1004.7
2023-04-11T13:08:59.694Z,1004.7
2023-04-11T13:13:59.809Z,1004.6
2023-04-11T13:18:57.507Z,1004.5
2023-04-11T13:23:57.383Z,1004.2
2023-04-11T13:28:57.628Z,1004
2023-04-11T13:33:57.234Z,1004
2023-04-11T13:38:57.340Z,1004.1
2023-04-11T13:43:56.658Z,1003.8
2023-04-11T13:48:57.243Z,1003.9
2023-04-11T13:53:57.281Z,1003.8
2023-04-11T13:58:59.019Z,1003.8
2023-04-11T14:00:47.134Z,1003.9
2023-04-11T14:05:19.286Z,1004
2023-04-11T14:10:19.050Z,1004
2023-04-11T14:15:20.003Z,1003.9
2023-04-11T14:20:16.127Z,1003.9
2023-04-11T14:25:16.110Z,1004
2023-04-11T14:30:15.649Z,1003.9
2023-04-11T14:35:15.513Z,1003.7
2023-04-11T14:40:14.630Z,1003.7
2023-04-11T14:45:13.903Z,1003.7
2023-04-11T14:50:13.719Z,1003.7
2023-04-11T14:55:13.512Z,1003.7
2023-04-11T15:04:42.292Z,1003.6
2023-04-11T15:24:40.664Z,1003.4
2023-04-11T16:04:11.920Z,1003.1
2023-04-11T16:09:10.532Z,1003.1
2023-04-11T16:14:10.124Z,1003.2
2023-04-11T16:19:10.025Z,1003.1
2023-04-11T16:24:09.828Z,1003.1
2023-04-11T16:29:09.942Z,1003.1
2023-04-11T16:34:07.725Z,1003.1
2023-04-11T16:39:07.040Z,1003.1
2023-04-11T16:44:06.798Z,1003
2023-04-11T16:49:05.781Z,1003
2023-04-11T16:54:05.698Z,1003
2023-04-11T16:59:04.970Z,1002.9
2023-04-11T17:04:05.627Z,1002.9
2023-04-11T17:09:04.391Z,1002.8
2023-04-11T17:14:06.032Z,1002.7
2023-04-11T17:19:02.516Z,1002.8
2023-04-11T17:24:17.947Z,1002.7
2023-04-11T17:29:01.655Z,1002.7
2023-04-11T17:34:01.330Z,1002.7
2023-04-11T17:38:58.882Z,1002.7
2023-04-11T17:43:58.780Z,1002.7
2023-04-11T17:48:57.787Z,1002.7
2023-04-11T17:53:57.562Z,1002.7
2023-04-11T17:58:56.595Z,1002.7
2023-04-11T18:03:57.557Z,1002.7
2023-04-11T18:09:11.498Z,1002.9
2023-04-11T18:13:59.939Z,1003
2023-04-11T18:18:53.870Z,1003
2023-04-11T18:23:53.692Z,1003.1
2023-04-11T18:28:52.818Z,1003.2
2023-04-11T18:33:57.124Z,1003.2
2023-04-11T18:38:52.470Z,1003.3
2023-04-11T18:43:51.915Z,1003.3
2023-04-11T18:48:52.145Z,1003.1
2023-04-11T18:53:52.068Z,1002.9
2023-04-11T18:59:04.225Z,1002.8
2023-04-11T19:00:57.908Z,1002.9
2023-04-11T19:05:14.411Z,1002.8
2023-04-11T19:10:13.366Z,1002.7
2023-04-11T19:15:13.143Z,1002.7
2023-04-11T19:20:10.319Z,1002.6
2023-04-11T19:25:09.976Z,1002.6
2023-04-11T19:30:09.181Z,1002.5
2023-04-11T19:35:09.015Z,1002.5
2023-04-11T19:40:08.166Z,1002.6
2023-04-11T19:45:08.657Z,1002.5
2023-04-11T19:50:07.800Z,1002.5
2023-04-11T19:55:08.198Z,1002.3
2023-04-11T19:59:41.618Z,1002.3
2023-04-11T20:04:40.864Z,1002.2
2023-04-11T21:04:10.975Z,1001.3
2023-04-11T21:09:09.457Z,1001.3
2023-04-11T21:14:09.679Z,1001.2
2023-04-11T21:19:08.498Z,1001.1
2023-04-11T21:24:09.418Z,1001.1
2023-04-11T21:29:08.825Z,1001
2023-04-11T21:34:08.710Z,1000.9
2023-04-11T21:39:06.325Z,1000.9
2023-04-11T21:44:06.161Z,1000.7
2023-04-11T21:49:05.210Z,1000.6
2023-04-11T21:54:04.814Z,1000.5
2023-04-11T21:59:04.330Z,1000.5
2023-04-11T22:04:05.094Z,1000.4
2023-04-11T22:09:03.057Z,1000.3
2023-04-11T22:14:02.990Z,1000.3
2023-04-11T22:19:03.758Z,1000.2
2023-04-11T22:24:00.385Z,1000
2023-04-11T22:29:02.101Z,999.9
2023-04-11T22:34:00.005Z,999.9
2023-04-11T22:38:59.793Z,999.8
2023-04-11T22:43:58.422Z,999.8
2023-04-11T22:48:57.378Z,999.8
2023-04-11T22:53:56.566Z,999.8
2023-04-11T22:58:55.843Z,999.7
2023-04-11T23:00:42.249Z,999.8
2023-04-11T23:05:17.142Z,999.6
2023-04-11T23:10:16.422Z,999.6
2023-04-11T23:15:16.339Z,999.6
2023-04-11T23:20:14.473Z,999.5
2023-04-11T23:25:13.784Z,999.6
2023-04-11T23:30:13.296Z,999.6
2023-04-11T23:35:13.335Z,999.6
2023-04-11T23:40:12.722Z,999.7
2023-04-11T23:45:12.278Z,999.6
2023-04-11T23:50:11.276Z,999.6
2023-04-11T23:55:11.096Z,999.6
